sensor_id;sensor_type;location;lat;lon;timestamp;temperature;humidity
22558;DHT22;11445;53.816;8.902;2023-02-15T00:02:02;3.60;99.90
22558;DHT22;11445;53.816;8.902;2023-02-15T00:04:29;3.60;99.90
22558;DHT22;11445;53.816;8.902;2023-02-15T00:07:10;3.60;99.90
22558;DHT22;11445;53.816;8.902;2023-02-15T00:09:37;3.60;99.90
22558;DHT22;11445;53.816;8.902;2023-02-15T00:12:04;3.60;99.90
22558;DHT22;11445;53.816;8.902;2023-02-15T00:14:31;3.60;99.90
22558;DHT22;11445;53.816;8.902;2023-02-15T00:17:00;3.60;99.90
22558;DHT22;11445;53.816;8.902;2023-02-15T00:19:27;3.60;99.90
22558;DHT22;11445;53.816;8.902;2023-02-15T00:21:54;3.50;99.90
22558;DHT22;11445;53.816;8.902;2023-02-15T00:24:21;3.50;99.90
22558;DHT22;11445;53.816;8.902;2023-02-15T00:26:48;3.50;99.90
22558;DHT22;11445;53.816;8.902;2023-02-15T00:29:17;3.50;99.90
22558;DHT22;11445;53.816;8.902;2023-02-15T00:31:44;3.50;99.90
22558;DHT22;11445;53.816;8.902;2023-02-15T00:34:15;3.50;99.90
22558;DHT22;11445;53.816;8.902;2023-02-15T00:36:42;3.50;99.90
22558;DHT22;11445;53.816;8.902;2023-02-15T00:39:10;3.50;99.90
22558;DHT22;11445;53.816;8.902;2023-02-15T00:41:37;3.50;99.90
22558;DHT22;11445;53.816;8.902;2023-02-15T00:44:04;3.50;99.90
22558;DHT22;11445;53.816;8.902;2023-02-15T00:46:31;3.50;99.90
22558;DHT22;11445;53.816;8.902;2023-02-15T00:48:59;3.50;99.90
22558;DHT22;11445;53.816;8.902;2023-02-15T00:51:27;3.50;99.90
22558;DHT22;11445;53.816;8.902;2023-02-15T00:53:54;3.60;99.90
22558;DHT22;11445;53.816;8.902;2023-02-15T00:56:21;3.60;99.90
22558;DHT22;11445;53.816;8.902;2023-02-15T00:58:48;3.60;99.90
22558;DHT22;11445;53.816;8.902;2023-02-15T01:01:18;3.60;99.90
22558;DHT22;11445;53.816;8.902;2023-02-15T01:03:45;3.60;99.90
22558;DHT22;11445;53.816;8.902;2023-02-15T01:06:13;3.60;99.90
22558;DHT22;11445;53.816;8.902;2023-02-15T01:08:42;3.60;99.90
22558;DHT22;11445;53.816;8.902;2023-02-15T01:11:12;3.60;99.90
22558;DHT22;11445;53.816;8.902;2023-02-15T01:13:39;3.60;99.90
22558;DHT22;11445;53.816;8.902;2023-02-15T01:16:07;3.60;99.90
22558;DHT22;11445;53.816;8.902;2023-02-15T01:18:35;3.60;99.90
22558;DHT22;11445;53.816;8.902;2023-02-15T01:21:10;3.60;99.90
22558;DHT22;11445;53.816;8.902;2023-02-15T01:23:37;3.60;99.90
22558;DHT22;11445;53.816;8.902;2023-02-15T01:26:05;3.50;99.90
22558;DHT22;11445;53.816;8.902;2023-02-15T01:28:33;3.50;99.90
22558;DHT22;11445;53.816;8.902;2023-02-15T01:31:05;3.40;99.90
22558;DHT22;11445;53.816;8.902;2023-02-15T01:33:33;3.40;99.90
22558;DHT22;11445;53.816;8.902;2023-02-15T01:36:00;3.40;99.90
22558;DHT22;11445;53.816;8.902;2023-02-15T01:38:27;3.30;99.90
22558;DHT22;11445;53.816;8.902;2023-02-15T01:40:54;3.20;99.90
22558;DHT22;11445;53.816;8.902;2023-02-15T01:43:46;3.20;99.90
22558;DHT22;11445;53.816;8.902;2023-02-15T01:46:15;3.20;99.90
22558;DHT22;11445;53.816;8.902;2023-02-15T01:48:45;3.10;99.90
22558;DHT22;11445;53.816;8.902;2023-02-15T01:51:14;3.10;99.90
22558;DHT22;11445;53.816;8.902;2023-02-15T01:53:47;3.10;99.90
22558;DHT22;11445;53.816;8.902;2023-02-15T01:56:18;3.10;99.90
22558;DHT22;11445;53.816;8.902;2023-02-15T01:58:47;3.10;99.90
22558;DHT22;11445;53.816;8.902;2023-02-15T02:01:16;3.00;99.90
22558;DHT22;11445;53.816;8.902;2023-02-15T02:03:49;3.00;99.90
22558;DHT22;11445;53.816;8.902;2023-02-15T02:06:17;3.00;99.90
22558;DHT22;11445;53.816;8.902;2023-02-15T02:08:45;3.00;99.90
22558;DHT22;11445;53.816;8.902;2023-02-15T02:11:13;3.00;99.90
22558;DHT22;11445;53.816;8.902;2023-02-15T02:13:41;2.90;99.90
22558;DHT22;11445;53.816;8.902;2023-02-15T02:16:14;2.90;99.90
22558;DHT22;11445;53.816;8.902;2023-02-15T02:18:49;2.90;99.90
22558;DHT22;11445;53.816;8.902;2023-02-15T02:22:09;2.90;99.90
22558;DHT22;11445;53.816;8.902;2023-02-15T02:24:58;2.80;99.90
22558;DHT22;11445;53.816;8.902;2023-02-15T02:27:34;2.80;99.90
22558;DHT22;11445;53.816;8.902;2023-02-15T02:33:42;2.70;99.90
22558;DHT22;11445;53.816;8.902;2023-02-15T02:36:17;2.70;99.90
22558;DHT22;11445;53.816;8.902;2023-02-15T02:38:58;2.70;99.90
22558;DHT22;11445;53.816;8.902;2023-02-15T02:41:31;2.60;99.90
22558;DHT22;11445;53.816;8.902;2023-02-15T02:44:04;2.60;99.90
22558;DHT22;11445;53.816;8.902;2023-02-15T02:46:39;2.60;99.90
22558;DHT22;11445;53.816;8.902;2023-02-15T02:49:11;2.60;99.90
22558;DHT22;11445;53.816;8.902;2023-02-15T02:51:38;2.50;99.90
22558;DHT22;11445;53.816;8.902;2023-02-15T02:54:06;2.50;99.90
22558;DHT22;11445;53.816;8.902;2023-02-15T02:56:37;2.50;99.90
22558;DHT22;11445;53.816;8.902;2023-02-15T02:59:09;2.50;99.90
22558;DHT22;11445;53.816;8.902;2023-02-15T03:01:41;2.40;99.90
22558;DHT22;11445;53.816;8.902;2023-02-15T03:04:14;2.40;99.90
22558;DHT22;11445;53.816;8.902;2023-02-15T03:06:45;2.40;99.90
22558;DHT22;11445;53.816;8.902;2023-02-15T03:09:17;2.40;99.90
22558;DHT22;11445;53.816;8.902;2023-02-15T03:11:46;2.40;99.90
22558;DHT22;11445;53.816;8.902;2023-02-15T03:14:14;2.40;99.90
22558;DHT22;11445;53.816;8.902;2023-02-15T03:16:46;2.40;99.90
22558;DHT22;11445;53.816;8.902;2023-02-15T03:19:17;2.40;99.90
22558;DHT22;11445;53.816;8.902;2023-02-15T03:21:48;2.40;99.90
22558;DHT22;11445;53.816;8.902;2023-02-15T03:24:32;2.30;99.90
22558;DHT22;11445;53.816;8.902;2023-02-15T03:27:03;2.30;99.90
22558;DHT22;11445;53.816;8.902;2023-02-15T03:29:32;2.30;99.90
22558;DHT22;11445;53.816;8.902;2023-02-15T03:32:02;2.30;99.90
22558;DHT22;11445;53.816;8.902;2023-02-15T03:34:31;2.20;99.90
22558;DHT22;11445;53.816;8.902;2023-02-15T03:37:03;2.20;99.90
22558;DHT22;11445;53.816;8.902;2023-02-15T03:39:32;2.20;99.90
22558;DHT22;11445;53.816;8.902;2023-02-15T03:42:07;2.20;99.90
22558;DHT22;11445;53.816;8.902;2023-02-15T03:44:42;2.20;99.90
22558;DHT22;11445;53.816;8.902;2023-02-15T03:47:15;2.20;99.90
22558;DHT22;11445;53.816;8.902;2023-02-15T03:49:48;2.20;99.90
22558;DHT22;11445;53.816;8.902;2023-02-15T03:52:16;2.20;99.90
22558;DHT22;11445;53.816;8.902;2023-02-15T03:54:44;2.10;99.90
22558;DHT22;11445;53.816;8.902;2023-02-15T03:57:16;2.00;99.90
22558;DHT22;11445;53.816;8.902;2023-02-15T04:00:05;2.00;99.90
22558;DHT22;11445;53.816;8.902;2023-02-15T04:02:59;1.90;99.90
22558;DHT22;11445;53.816;8.902;2023-02-15T04:05:31;1.90;99.90
22558;DHT22;11445;53.816;8.902;2023-02-15T04:07:58;1.90;99.90
22558;DHT22;11445;53.816;8.902;2023-02-15T04:10:25;1.90;99.90
22558;DHT22;11445;53.816;8.902;2023-02-15T04:13:10;1.90;99.90
22558;DHT22;11445;53.816;8.902;2023-02-15T04:15:37;1.90;99.90
22558;DHT22;11445;53.816;8.902;2023-02-15T04:18:22;1.90;99.90
22558;DHT22;11445;53.816;8.902;2023-02-15T04:21:08;1.90;99.90
22558;DHT22;11445;53.816;8.902;2023-02-15T04:23:52;2.00;99.90
22558;DHT22;11445;53.816;8.902;2023-02-15T04:26:36;2.00;99.90
22558;DHT22;11445;53.816;8.902;2023-02-15T04:29:03;2.00;99.90
22558;DHT22;11445;53.816;8.902;2023-02-15T04:31:30;2.00;99.90
22558;DHT22;11445;53.816;8.902;2023-02-15T04:33:57;1.90;99.90
22558;DHT22;11445;53.816;8.902;2023-02-15T04:36:26;1.90;99.90
22558;DHT22;11445;53.816;8.902;2023-02-15T04:38:53;1.90;99.90
22558;DHT22;11445;53.816;8.902;2023-02-15T04:41:20;1.90;99.90
22558;DHT22;11445;53.816;8.902;2023-02-15T04:43:47;1.90;99.90
22558;DHT22;11445;53.816;8.902;2023-02-15T04:46:14;1.90;99.90
22558;DHT22;11445;53.816;8.902;2023-02-15T04:48:41;1.90;99.90
22558;DHT22;11445;53.816;8.902;2023-02-15T04:51:09;1.90;99.90
22558;DHT22;11445;53.816;8.902;2023-02-15T04:53:38;1.90;99.90
22558;DHT22;11445;53.816;8.902;2023-02-15T04:56:05;1.90;99.90
22558;DHT22;11445;53.816;8.902;2023-02-15T04:58:32;1.90;99.90
22558;DHT22;11445;53.816;8.902;2023-02-15T05:01:00;1.80;99.90
22558;DHT22;11445;53.816;8.902;2023-02-15T05:03:27;1.80;99.90
22558;DHT22;11445;53.816;8.902;2023-02-15T05:05:55;1.80;99.90
22558;DHT22;11445;53.816;8.902;2023-02-15T05:08:22;1.80;99.90
22558;DHT22;11445;53.816;8.902;2023-02-15T05:10:50;1.80;99.90
22558;DHT22;11445;53.816;8.902;2023-02-15T05:13:17;1.80;99.90
22558;DHT22;11445;53.816;8.902;2023-02-15T05:15:47;1.80;99.90
22558;DHT22;11445;53.816;8.902;2023-02-15T05:18:15;1.80;99.90
22558;DHT22;11445;53.816;8.902;2023-02-15T05:20:43;1.70;99.90
22558;DHT22;11445;53.816;8.902;2023-02-15T05:23:10;1.70;99.90
22558;DHT22;11445;53.816;8.902;2023-02-15T05:25:37;1.60;99.90
22558;DHT22;11445;53.816;8.902;2023-02-15T05:28:25;1.60;99.90
22558;DHT22;11445;53.816;8.902;2023-02-15T05:31:02;1.60;99.90
22558;DHT22;11445;53.816;8.902;2023-02-15T05:33:30;1.60;99.90
22558;DHT22;11445;53.816;8.902;2023-02-15T05:35:57;1.60;99.90
22558;DHT22;11445;53.816;8.902;2023-02-15T05:38:24;1.60;99.90
22558;DHT22;11445;53.816;8.902;2023-02-15T05:40:51;1.60;99.90
22558;DHT22;11445;53.816;8.902;2023-02-15T05:43:18;1.60;99.90
22558;DHT22;11445;53.816;8.902;2023-02-15T05:45:47;1.60;99.90
22558;DHT22;11445;53.816;8.902;2023-02-15T05:48:14;1.60;99.90
22558;DHT22;11445;53.816;8.902;2023-02-15T05:50:41;1.60;99.90
22558;DHT22;11445;53.816;8.902;2023-02-15T05:53:08;1.60;99.90
22558;DHT22;11445;53.816;8.902;2023-02-15T05:55:37;1.60;99.90
22558;DHT22;11445;53.816;8.902;2023-02-15T05:58:05;1.70;99.90
22558;DHT22;11445;53.816;8.902;2023-02-15T06:00:32;1.60;99.90
22558;DHT22;11445;53.816;8.902;2023-02-15T06:03:01;1.60;99.90
22558;DHT22;11445;53.816;8.902;2023-02-15T06:05:28;1.60;99.90
22558;DHT22;11445;53.816;8.902;2023-02-15T06:07:55;1.60;99.90
22558;DHT22;11445;53.816;8.902;2023-02-15T06:10:22;1.60;99.90
22558;DHT22;11445;53.816;8.902;2023-02-15T06:12:49;1.60;99.90
22558;DHT22;11445;53.816;8.902;2023-02-15T06:15:16;1.60;99.90
22558;DHT22;11445;53.816;8.902;2023-02-15T06:17:43;1.60;99.90
22558;DHT22;11445;53.816;8.902;2023-02-15T06:20:12;1.50;99.90
22558;DHT22;11445;53.816;8.902;2023-02-15T06:22:39;1.50;99.90
22558;DHT22;11445;53.816;8.902;2023-02-15T06:25:07;1.50;99.90
22558;DHT22;11445;53.816;8.902;2023-02-15T06:27:36;1.40;99.90
22558;DHT22;11445;53.816;8.902;2023-02-15T06:30:05;1.50;99.90
22558;DHT22;11445;53.816;8.902;2023-02-15T06:32:32;1.50;99.90
22558;DHT22;11445;53.816;8.902;2023-02-15T06:34:59;1.40;99.90
22558;DHT22;11445;53.816;8.902;2023-02-15T06:37:28;1.40;99.90
22558;DHT22;11445;53.816;8.902;2023-02-15T06:39:55;1.40;99.90
22558;DHT22;11445;53.816;8.902;2023-02-15T06:42:22;1.40;99.90
22558;DHT22;11445;53.816;8.902;2023-02-15T06:44:49;1.30;99.90
22558;DHT22;11445;53.816;8.902;2023-02-15T06:47:16;1.30;99.90
22558;DHT22;11445;53.816;8.902;2023-02-15T06:49:43;1.30;99.90
22558;DHT22;11445;53.816;8.902;2023-02-15T06:52:10;1.30;99.90
22558;DHT22;11445;53.816;8.902;2023-02-15T06:54:39;1.30;99.90
22558;DHT22;11445;53.816;8.902;2023-02-15T06:57:06;1.30;99.90
22558;DHT22;11445;53.816;8.902;2023-02-15T06:59:35;1.50;99.90
22558;DHT22;11445;53.816;8.902;2023-02-15T07:02:02;1.60;99.90
22558;DHT22;11445;53.816;8.902;2023-02-15T07:04:29;1.50;99.90
22558;DHT22;11445;53.816;8.902;2023-02-15T07:06:56;1.40;99.90
22558;DHT22;11445;53.816;8.902;2023-02-15T07:09:23;1.30;99.90
22558;DHT22;11445;53.816;8.902;2023-02-15T07:11:51;1.20;99.90
22558;DHT22;11445;53.816;8.902;2023-02-15T07:14:36;1.20;99.90
22558;DHT22;11445;53.816;8.902;2023-02-15T07:17:03;1.20;99.90
22558;DHT22;11445;53.816;8.902;2023-02-15T07:19:30;1.20;99.90
22558;DHT22;11445;53.816;8.902;2023-02-15T07:21:57;1.10;99.90
22558;DHT22;11445;53.816;8.902;2023-02-15T07:24:24;1.00;99.90
22558;DHT22;11445;53.816;8.902;2023-02-15T07:26:52;1.00;99.90
22558;DHT22;11445;53.816;8.902;2023-02-15T07:29:20;1.10;99.90
22558;DHT22;11445;53.816;8.902;2023-02-15T07:31:47;1.10;99.90
22558;DHT22;11445;53.816;8.902;2023-02-15T07:34:14;1.10;99.90
22558;DHT22;11445;53.816;8.902;2023-02-15T07:36:41;1.10;99.90
22558;DHT22;11445;53.816;8.902;2023-02-15T07:39:09;1.10;99.90
22558;DHT22;11445;53.816;8.902;2023-02-15T07:41:36;1.10;99.90
22558;DHT22;11445;53.816;8.902;2023-02-15T07:44:05;1.20;99.90
22558;DHT22;11445;53.816;8.902;2023-02-15T07:46:32;1.20;99.90
22558;DHT22;11445;53.816;8.902;2023-02-15T07:48:59;1.30;99.90
22558;DHT22;11445;53.816;8.902;2023-02-15T07:51:26;1.30;99.90
22558;DHT22;11445;53.816;8.902;2023-02-15T07:53:53;1.40;99.90
22558;DHT22;11445;53.816;8.902;2023-02-15T07:56:20;1.40;99.90
22558;DHT22;11445;53.816;8.902;2023-02-15T07:58:47;1.40;99.90
22558;DHT22;11445;53.816;8.902;2023-02-15T08:01:20;1.40;99.90
22558;DHT22;11445;53.816;8.902;2023-02-15T08:03:47;1.40;99.90
22558;DHT22;11445;53.816;8.902;2023-02-15T08:06:14;1.50;99.90
22558;DHT22;11445;53.816;8.902;2023-02-15T08:08:42;1.50;99.90
22558;DHT22;11445;53.816;8.902;2023-02-15T08:11:16;1.60;99.90
22558;DHT22;11445;53.816;8.902;2023-02-15T08:13:55;1.60;99.90
22558;DHT22;11445;53.816;8.902;2023-02-15T08:16:28;1.50;99.90
22558;DHT22;11445;53.816;8.902;2023-02-15T08:18:56;1.60;99.90
22558;DHT22;11445;53.816;8.902;2023-02-15T08:21:26;1.60;99.90
22558;DHT22;11445;53.816;8.902;2023-02-15T08:23:54;1.60;99.90
22558;DHT22;11445;53.816;8.902;2023-02-15T08:26:21;1.60;99.90
22558;DHT22;11445;53.816;8.902;2023-02-15T08:28:48;1.70;99.90
22558;DHT22;11445;53.816;8.902;2023-02-15T08:31:16;1.70;99.90
22558;DHT22;11445;53.816;8.902;2023-02-15T08:33:46;1.70;99.90
22558;DHT22;11445;53.816;8.902;2023-02-15T08:36:15;1.70;99.90
22558;DHT22;11445;53.816;8.902;2023-02-15T08:38:42;1.80;99.90
22558;DHT22;11445;53.816;8.902;2023-02-15T08:41:11;1.80;99.90
22558;DHT22;11445;53.816;8.902;2023-02-15T08:43:39;1.80;99.90
22558;DHT22;11445;53.816;8.902;2023-02-15T08:46:07;1.80;99.90
22558;DHT22;11445;53.816;8.902;2023-02-15T08:48:34;1.80;99.90
22558;DHT22;11445;53.816;8.902;2023-02-15T08:51:08;1.90;99.90
22558;DHT22;11445;53.816;8.902;2023-02-15T08:53:36;1.90;99.90
22558;DHT22;11445;53.816;8.902;2023-02-15T08:56:04;1.90;99.90
22558;DHT22;11445;53.816;8.902;2023-02-15T08:58:31;2.00;99.90
22558;DHT22;11445;53.816;8.902;2023-02-15T09:00:58;2.00;99.90
22558;DHT22;11445;53.816;8.902;2023-02-15T09:03:27;2.00;99.90
22558;DHT22;11445;53.816;8.902;2023-02-15T09:05:58;2.00;99.90
22558;DHT22;11445;53.816;8.902;2023-02-15T09:08:28;2.10;99.90
22558;DHT22;11445;53.816;8.902;2023-02-15T09:11:05;2.10;99.90
22558;DHT22;11445;53.816;8.902;2023-02-15T09:13:32;2.10;99.90
22558;DHT22;11445;53.816;8.902;2023-02-15T09:16:00;2.10;99.90
22558;DHT22;11445;53.816;8.902;2023-02-15T09:18:31;2.20;99.90
22558;DHT22;11445;53.816;8.902;2023-02-15T09:21:04;2.20;99.90
22558;DHT22;11445;53.816;8.902;2023-02-15T09:23:33;2.20;99.90
22558;DHT22;11445;53.816;8.902;2023-02-15T09:26:05;2.30;99.90
22558;DHT22;11445;53.816;8.902;2023-02-15T09:28:33;2.30;99.90
22558;DHT22;11445;53.816;8.902;2023-02-15T09:31:08;2.30;99.90
22558;DHT22;11445;53.816;8.902;2023-02-15T09:33:36;2.30;99.90
22558;DHT22;11445;53.816;8.902;2023-02-15T09:36:03;2.30;99.90
22558;DHT22;11445;53.816;8.902;2023-02-15T09:38:30;2.40;99.90
22558;DHT22;11445;53.816;8.902;2023-02-15T09:41:10;2.40;99.90
22558;DHT22;11445;53.816;8.902;2023-02-15T09:43:49;2.40;99.90
22558;DHT22;11445;53.816;8.902;2023-02-15T09:46:38;2.50;99.90
22558;DHT22;11445;53.816;8.902;2023-02-15T09:49:15;2.50;99.90
22558;DHT22;11445;53.816;8.902;2023-02-15T09:52:00;2.60;99.90
22558;DHT22;11445;53.816;8.902;2023-02-15T09:54:48;2.60;99.90
22558;DHT22;11445;53.816;8.902;2023-02-15T09:57:26;2.60;99.90
22558;DHT22;11445;53.816;8.902;2023-02-15T10:00:04;2.70;99.90
22558;DHT22;11445;53.816;8.902;2023-02-15T10:02:48;2.80;99.90
22558;DHT22;11445;53.816;8.902;2023-02-15T10:05:25;2.80;99.90
22558;DHT22;11445;53.816;8.902;2023-02-15T10:08:18;2.80;99.90
22558;DHT22;11445;53.816;8.902;2023-02-15T10:10:57;2.90;99.90
22558;DHT22;11445;53.816;8.902;2023-02-15T10:13:57;3.00;99.90
22558;DHT22;11445;53.816;8.902;2023-02-15T10:16:37;3.00;99.90
22558;DHT22;11445;53.816;8.902;2023-02-15T10:19:11;3.10;99.90
22558;DHT22;11445;53.816;8.902;2023-02-15T10:21:53;3.20;99.90
22558;DHT22;11445;53.816;8.902;2023-02-15T10:24:42;3.20;99.90
22558;DHT22;11445;53.816;8.902;2023-02-15T10:27:15;3.30;99.90
22558;DHT22;11445;53.816;8.902;2023-02-15T10:29:53;3.30;99.90
22558;DHT22;11445;53.816;8.902;2023-02-15T10:32:25;3.40;99.90
22558;DHT22;11445;53.816;8.902;2023-02-15T10:35:00;3.40;99.90
22558;DHT22;11445;53.816;8.902;2023-02-15T10:37:47;3.40;99.90
22558;DHT22;11445;53.816;8.902;2023-02-15T10:40:25;3.40;99.90
22558;DHT22;11445;53.816;8.902;2023-02-15T10:43:07;3.50;99.90
22558;DHT22;11445;53.816;8.902;2023-02-15T10:45:45;3.50;99.90
22558;DHT22;11445;53.816;8.902;2023-02-15T10:48:30;3.70;99.90
22558;DHT22;11445;53.816;8.902;2023-02-15T10:51:02;3.90;99.90
22558;DHT22;11445;53.816;8.902;2023-02-15T10:53:53;3.90;99.90
22558;DHT22;11445;53.816;8.902;2023-02-15T10:56:25;4.00;99.90
22558;DHT22;11445;53.816;8.902;2023-02-15T10:59:11;4.00;99.90
22558;DHT22;11445;53.816;8.902;2023-02-15T11:01:50;4.10;99.90
22558;DHT22;11445;53.816;8.902;2023-02-15T11:04:45;4.00;99.90
22558;DHT22;11445;53.816;8.902;2023-02-15T11:07:19;4.10;99.90
22558;DHT22;11445;53.816;8.902;2023-02-15T11:09:51;4.20;99.90
22558;DHT22;11445;53.816;8.902;2023-02-15T11:12:23;4.20;99.90
22558;DHT22;11445;53.816;8.902;2023-02-15T11:14:55;4.30;99.90
22558;DHT22;11445;53.816;8.902;2023-02-15T11:17:28;4.30;99.90
22558;DHT22;11445;53.816;8.902;2023-02-15T11:20:04;4.30;99.90
22558;DHT22;11445;53.816;8.902;2023-02-15T11:22:35;4.30;99.90
22558;DHT22;11445;53.816;8.902;2023-02-15T11:25:14;4.30;99.90
22558;DHT22;11445;53.816;8.902;2023-02-15T11:27:43;4.40;99.90
22558;DHT22;11445;53.816;8.902;2023-02-15T11:30:14;4.40;99.90
22558;DHT22;11445;53.816;8.902;2023-02-15T11:32:44;4.40;99.90
22558;DHT22;11445;53.816;8.902;2023-02-15T11:35:23;4.40;99.90
22558;DHT22;11445;53.816;8.902;2023-02-15T11:37:57;4.40;99.90
22558;DHT22;11445;53.816;8.902;2023-02-15T11:40:28;4.40;99.90
22558;DHT22;11445;53.816;8.902;2023-02-15T11:42:57;4.50;99.90
22558;DHT22;11445;53.816;8.902;2023-02-15T11:45:28;4.50;99.90
22558;DHT22;11445;53.816;8.902;2023-02-15T11:47:58;4.60;99.90
22558;DHT22;11445;53.816;8.902;2023-02-15T11:50:28;4.60;99.90
22558;DHT22;11445;53.816;8.902;2023-02-15T11:52:59;4.70;99.90
22558;DHT22;11445;53.816;8.902;2023-02-15T11:55:27;4.70;99.90
22558;DHT22;11445;53.816;8.902;2023-02-15T11:57:57;4.70;99.90
22558;DHT22;11445;53.816;8.902;2023-02-15T12:00:32;4.70;99.90
22558;DHT22;11445;53.816;8.902;2023-02-15T12:03:11;4.70;99.90
22558;DHT22;11445;53.816;8.902;2023-02-15T12:05:40;4.70;99.90
22558;DHT22;11445;53.816;8.902;2023-02-15T12:08:17;4.80;99.90
22558;DHT22;11445;53.816;8.902;2023-02-15T12:10:56;5.00;99.90
22558;DHT22;11445;53.816;8.902;2023-02-15T12:13:24;5.20;99.90
22558;DHT22;11445;53.816;8.902;2023-02-15T12:15:53;5.20;99.90
22558;DHT22;11445;53.816;8.902;2023-02-15T12:18:32;5.20;99.90
22558;DHT22;11445;53.816;8.902;2023-02-15T12:21:03;5.20;99.90
22558;DHT22;11445;53.816;8.902;2023-02-15T12:23:33;5.20;99.90
22558;DHT22;11445;53.816;8.902;2023-02-15T12:26:00;5.20;99.90
22558;DHT22;11445;53.816;8.902;2023-02-15T12:28:32;5.20;99.90
22558;DHT22;11445;53.816;8.902;2023-02-15T12:31:01;5.20;99.90
22558;DHT22;11445;53.816;8.902;2023-02-15T12:33:34;5.30;99.90
22558;DHT22;11445;53.816;8.902;2023-02-15T12:36:06;5.20;99.90
22558;DHT22;11445;53.816;8.902;2023-02-15T12:38:36;5.30;99.90
22558;DHT22;11445;53.816;8.902;2023-02-15T12:41:05;5.30;99.90
22558;DHT22;11445;53.816;8.902;2023-02-15T12:44:03;5.30;99.90
22558;DHT22;11445;53.816;8.902;2023-02-15T12:46:30;5.30;99.90
22558;DHT22;11445;53.816;8.902;2023-02-15T12:49:19;5.40;99.90
22558;DHT22;11445;53.816;8.902;2023-02-15T12:51:48;5.40;99.90
22558;DHT22;11445;53.816;8.902;2023-02-15T12:54:31;5.50;99.90
22558;DHT22;11445;53.816;8.902;2023-02-15T12:57:13;5.50;99.90
22558;DHT22;11445;53.816;8.902;2023-02-15T12:59:48;5.60;99.90
22558;DHT22;11445;53.816;8.902;2023-02-15T13:02:25;5.60;99.90
22558;DHT22;11445;53.816;8.902;2023-02-15T13:04:54;5.60;99.90
22558;DHT22;11445;53.816;8.902;2023-02-15T13:07:23;5.60;99.90
22558;DHT22;11445;53.816;8.902;2023-02-15T13:09:51;5.60;99.90
22558;DHT22;11445;53.816;8.902;2023-02-15T13:12:21;5.70;99.90
22558;DHT22;11445;53.816;8.902;2023-02-15T13:14:50;5.70;99.90
22558;DHT22;11445;53.816;8.902;2023-02-15T13:17:21;5.80;99.90
22558;DHT22;11445;53.816;8.902;2023-02-15T13:19:52;5.80;99.90
22558;DHT22;11445;53.816;8.902;2023-02-15T13:22:24;5.80;99.90
22558;DHT22;11445;53.816;8.902;2023-02-15T13:24:55;5.90;99.90
22558;DHT22;11445;53.816;8.902;2023-02-15T13:27:26;6.00;99.90
22558;DHT22;11445;53.816;8.902;2023-02-15T13:29:58;6.10;99.90
22558;DHT22;11445;53.816;8.902;2023-02-15T13:32:31;6.20;99.90
22558;DHT22;11445;53.816;8.902;2023-02-15T13:35:04;6.30;99.90
22558;DHT22;11445;53.816;8.902;2023-02-15T13:37:53;6.30;99.90
22558;DHT22;11445;53.816;8.902;2023-02-15T13:40:32;6.20;99.90
22558;DHT22;11445;53.816;8.902;2023-02-15T13:43:05;6.20;99.90
22558;DHT22;11445;53.816;8.902;2023-02-15T13:45:40;6.10;99.90
22558;DHT22;11445;53.816;8.902;2023-02-15T13:48:17;6.10;99.90
22558;DHT22;11445;53.816;8.902;2023-02-15T13:51:01;6.10;99.90
22558;DHT22;11445;53.816;8.902;2023-02-15T13:53:40;6.00;99.90
22558;DHT22;11445;53.816;8.902;2023-02-15T13:56:17;6.10;99.90
22558;DHT22;11445;53.816;8.902;2023-02-15T13:59:12;6.30;99.90
22558;DHT22;11445;53.816;8.902;2023-02-15T14:01:45;6.40;99.90
22558;DHT22;11445;53.816;8.902;2023-02-15T14:04:33;6.40;99.90
22558;DHT22;11445;53.816;8.902;2023-02-15T14:07:19;6.50;99.90
22558;DHT22;11445;53.816;8.902;2023-02-15T14:09:59;6.50;99.90
22558;DHT22;11445;53.816;8.902;2023-02-15T14:12:39;6.60;99.90
22558;DHT22;11445;53.816;8.902;2023-02-15T14:15:18;6.60;99.90
22558;DHT22;11445;53.816;8.902;2023-02-15T14:17:59;6.70;99.90
22558;DHT22;11445;53.816;8.902;2023-02-15T14:20:39;6.80;99.90
22558;DHT22;11445;53.816;8.902;2023-02-15T14:23:19;6.80;99.90
22558;DHT22;11445;53.816;8.902;2023-02-15T14:25:58;6.80;99.90
22558;DHT22;11445;53.816;8.902;2023-02-15T14:28:31;6.80;99.90
22558;DHT22;11445;53.816;8.902;2023-02-15T14:31:02;6.90;99.90
22558;DHT22;11445;53.816;8.902;2023-02-15T14:33:33;6.90;99.90
22558;DHT22;11445;53.816;8.902;2023-02-15T14:36:04;7.00;99.90
22558;DHT22;11445;53.816;8.902;2023-02-15T14:38:50;6.90;99.90
22558;DHT22;11445;53.816;8.902;2023-02-15T14:41:23;7.00;99.90
22558;DHT22;11445;53.816;8.902;2023-02-15T14:43:59;7.00;99.90
22558;DHT22;11445;53.816;8.902;2023-02-15T14:46:31;7.00;99.90
22558;DHT22;11445;53.816;8.902;2023-02-15T14:49:06;6.90;99.90
22558;DHT22;11445;53.816;8.902;2023-02-15T14:54:59;6.90;99.90
22558;DHT22;11445;53.816;8.902;2023-02-15T14:57:35;6.90;99.90
22558;DHT22;11445;53.816;8.902;2023-02-15T15:00:36;6.90;99.90
22558;DHT22;11445;53.816;8.902;2023-02-15T15:03:12;6.80;99.90
22558;DHT22;11445;53.816;8.902;2023-02-15T15:05:50;6.80;99.90
22558;DHT22;11445;53.816;8.902;2023-02-15T15:08:29;6.80;99.90
22558;DHT22;11445;53.816;8.902;2023-02-15T15:11:38;6.80;99.90
22558;DHT22;11445;53.816;8.902;2023-02-15T15:14:05;6.80;99.90
22558;DHT22;11445;53.816;8.902;2023-02-15T15:16:50;6.80;99.90
22558;DHT22;11445;53.816;8.902;2023-02-15T15:22:24;6.90;99.90
22558;DHT22;11445;53.816;8.902;2023-02-15T15:24:53;6.90;99.90
22558;DHT22;11445;53.816;8.902;2023-02-15T15:27:55;6.80;99.90
22558;DHT22;11445;53.816;8.902;2023-02-15T15:30:46;6.80;99.90
22558;DHT22;11445;53.816;8.902;2023-02-15T15:33:37;6.80;99.90
22558;DHT22;11445;53.816;8.902;2023-02-15T15:36:13;6.70;99.90
22558;DHT22;11445;53.816;8.902;2023-02-15T15:38:50;6.70;99.90
22558;DHT22;11445;53.816;8.902;2023-02-15T15:41:30;6.60;99.90
22558;DHT22;11445;53.816;8.902;2023-02-15T15:47:25;6.50;99.90
22558;DHT22;11445;53.816;8.902;2023-02-15T15:49:57;6.50;99.90
22558;DHT22;11445;53.816;8.902;2023-02-15T15:52:25;6.40;99.90
22558;DHT22;11445;53.816;8.902;2023-02-15T15:54:55;6.40;99.90
22558;DHT22;11445;53.816;8.902;2023-02-15T15:57:27;6.40;99.90
22558;DHT22;11445;53.816;8.902;2023-02-15T15:59:56;6.40;99.90
22558;DHT22;11445;53.816;8.902;2023-02-15T16:02:25;6.30;99.90
22558;DHT22;11445;53.816;8.902;2023-02-15T16:04:52;6.30;99.90
22558;DHT22;11445;53.816;8.902;2023-02-15T16:07:24;6.30;99.90
22558;DHT22;11445;53.816;8.902;2023-02-15T16:09:56;6.30;99.90
22558;DHT22;11445;53.816;8.902;2023-02-15T16:12:24;6.30;99.90
22558;DHT22;11445;53.816;8.902;2023-02-15T16:14:52;6.20;99.90
22558;DHT22;11445;53.816;8.902;2023-02-15T16:17:24;6.30;99.90
22558;DHT22;11445;53.816;8.902;2023-02-15T16:19:59;6.30;99.90
22558;DHT22;11445;53.816;8.902;2023-02-15T16:22:28;6.20;99.90
22558;DHT22;11445;53.816;8.902;2023-02-15T16:25:19;6.20;99.90
22558;DHT22;11445;53.816;8.902;2023-02-15T16:27:50;6.10;99.90
22558;DHT22;11445;53.816;8.902;2023-02-15T16:30:23;6.00;99.90
22558;DHT22;11445;53.816;8.902;2023-02-15T16:32:55;6.00;99.90